• Join FlightAware (Why Join?)
  • Login
  • US Flag 
01:53AM EDT


 

Airport Tracker/Info


-or-


 

Live Flight TrackerFlight Track Log ✈ TAM8090 ✈ 23-Apr-2013 ✈ SBGR / GRU - KMIA

Flight Track Log - Related Links

Times and Time Zones

All times are in EDT time to prevent confusion due to time zone crossing. See the TAM8090 flight status page for this flight to view local times or setup timezone preferences in your user account.

Time Position Orientation Groundspeed Altitude Reporting Facility
EDT Latitude Longitude Course Direction KTS MPH feet Rate Location/Type
11:13PM -23.4240 -46.4450 73° East 195 224 2,600  Level FlightAware
11:14PM -23.4200 -46.4160 81° East 193 222 3,900 2,220 Climbing FlightAware
11:14PM -23.4230 -46.4110 123° Southeast 193 222 4,100 1,680 Climbing FlightAware
11:14PM -23.4360 -46.4020 148° Southeast 196 226 4,600 1,800 Climbing FlightAware
11:14PM -23.4510 -46.4040 187° South 217 250 5,000 1,560 Climbing FlightAware
11:15PM -23.4610 -46.4160 228° Southwest 225 259 5,400 1,020 Climbing FlightAware
11:15PM -23.4790 -46.4470 238° Southwest 261 300 5,800 960 Climbing FlightAware
11:15PM -23.4980 -46.4750 233° Southwest 284 327 6,300 1,800 Climbing FlightAware
11:16PM -23.5240 -46.5120 233° Southwest 294 338 7,500 2,400 Climbing FlightAware
11:16PM -23.5440 -46.5480 239° Southwest 297 342 8,700 2,400 Climbing FlightAware
11:17PM -23.5470 -46.5640 258° West 302 348 9,100 1,020 Climbing FlightAware
11:17PM -23.5470 -46.5710 270° West 301 346 9,300 1,440 Climbing FlightAware
11:18PM -23.5430 -46.6730 272° West 343 395 10,800 1,560 Climbing FlightAware
11:19PM -23.5380 -46.7580 274° West 386 444 11,700 1,440 Climbing FlightAware
11:19PM -23.5340 -46.8400 273° West 407 468 12,900 1,920 Climbing FlightAware
11:20PM -23.5310 -46.9220 272° West 417 480 14,300 2,160 Climbing FlightAware
11:21PM -23.5260 -47.0180 273° West 423 487 16,000 2,220 Climbing FlightAware
11:21PM -23.5210 -47.1050 274° West 429 494 17,500 2,160 Climbing FlightAware
11:22PM -23.5160 -47.2030 273° West 437 503 19,100 2,040 Climbing FlightAware
11:23PM -23.5120 -47.2920 273° West 442 509 20,400 1,800 Climbing FlightAware
11:23PM -23.4970 -47.3840 280° West 450 518 21,700 1,800 Climbing FlightAware
11:24PM -23.4480 -47.4670 303° West 459 528 23,000 1,800 Climbing FlightAware
11:25PM -23.3970 -47.5410 307° West 466 536 24,100 1,680 Climbing FlightAware
11:26PM -23.3390 -47.6250 307° West 467 537 25,400 1,500 Climbing FlightAware
11:26PM -23.2870 -47.7020 306° West 475 547 26,300 1,500 Climbing FlightAware
11:27PM -23.2320 -47.7820 307° West 486 559 27,400 1,680 Climbing FlightAware
11:28PM -23.1740 -47.8670 307° West 486 559 28,700 1,620 Climbing FlightAware
11:28PM -23.1150 -47.9530 307° West 491 565 29,700 1,620 Climbing FlightAware
11:29PM -23.0550 -48.0410 307° West 488 562 31,000 1,620 Climbing FlightAware
11:30PM -23.0010 -48.1190 307° West 484 557 32,000 720 Climbing FlightAware
11:30PM -22.9480 -48.1960 307° West 482 555 32,000  Level FlightAware
11:31PM -22.8860 -48.2850 307° West 481 554 32,000  Level FlightAware
11:32PM -22.8350 -48.3590 307° West 479 551 32,000  Level FlightAware
11:33PM -22.7750 -48.4460 307° West 478 550 32,000  Level FlightAware
11:33PM -22.7220 -48.5230 307° West 475 547 32,000  Level FlightAware
11:34PM -22.6690 -48.5990 307° West 475 547 32,000  Level FlightAware
11:35PM -22.6090 -48.6860 307° West 476 548 32,000  Level FlightAware
11:35PM -22.5560 -48.7610 307° West 476 548 32,000  Level FlightAware
11:36PM -22.4980 -48.8440 307° West 476 548 32,000  Level FlightAware
11:37PM -22.4430 -48.9230 307° West 475 547 32,000  Level FlightAware
11:37PM -22.3910 -48.9970 307° West 475 547 32,000  Level FlightAware
11:38PM -22.3290 -49.0850 307° West 477 549 32,000  Level FlightAware
11:39PM -22.2710 -49.1560 311° West 476 548 32,000  Level FlightAware
11:40PM -22.2040 -49.2310 314° West 475 547 32,000  Level FlightAware
11:40PM -22.1330 -49.3100 314° West 475 547 32,000  Level FlightAware
11:41PM -22.0820 -49.3660 314° West 475 547 32,000  Level FlightAware
11:42PM -22.0120 -49.4450 314° West 475 547 32,000  Level FlightAware
11:42PM -21.9460 -49.5190 314° West 474 545 32,000  Level FlightAware
11:43PM -21.8900 -49.5810 314° West 473 544 32,000  Level FlightAware
11:44PM -21.8220 -49.6560 314° West 473 544 32,000  Level FlightAware
11:44PM -21.7520 -49.7340 314° West 473 544 32,000  Level FlightAware
11:45PM -21.6920 -49.8000 314° West 473 544 32,000  Level FlightAware
11:46PM -21.6310 -49.8680 314° West 472 543 32,000  Level FlightAware
11:47PM -21.5640 -49.9420 314° West 470 541 32,000  Level FlightAware
11:47PM -21.5020 -50.0100 314° West 470 541 32,000  Level FlightAware
11:48PM -21.4320 -50.0870 314° West 470 541 32,000  Level FlightAware
11:49PM -21.3720 -50.1540 314° West 471 542 32,000  Level FlightAware
11:49PM -21.3060 -50.2280 314° West 469 540 32,000  Level FlightAware
11:50PM -21.2580 -50.2820 314° West 469 540 32,000  Level FlightAware
11:51PM -21.1860 -50.3610 314° West 471 542 32,000  Level FlightAware
11:52PM -21.0780 -50.4800 314° West 473 544 32,000  Level FlightAware
11:53PM -21.0180 -50.5470 314° West 469 540 32,000  Level FlightAware
11:54PM -20.9320 -50.6410 314° West 469 540 32,000  Level FlightAware
11:54PM -20.8570 -50.7230 314° West 469 540 32,000  Level FlightAware
11:55PM -20.8160 -50.7680 314° West 470 541 32,000  Level FlightAware
11:56PM -20.7340 -50.8550 315° West 468 539 32,000  Level FlightAware
11:56PM -20.6790 -50.9150 314° West 469 540 32,000  Level FlightAware
11:57PM -20.5800 -51.0190 315° West 472 543 32,000  Level FlightAware
11:58PM -20.5090 -51.0970 314° West 470 541 32,000  Level FlightAware
11:59PM -20.4440 -51.1680 314° West 470 541 32,000  Level FlightAware
12:00AM -20.3930 -51.2250 314° West 470 541 32,000  Level FlightAware
12:00AM -20.3170 -51.2800 326° Northwest 469 540 32,000  Level FlightAware
12:01AM -20.2290 -51.3380 328° Northwest 469 540 32,000  Level FlightAware
12:02AM -20.1670 -51.3800 328° Northwest 469 540 32,000  Level FlightAware
12:02AM -20.1040 -51.4210 329° Northwest 469 540 32,000  Level FlightAware
12:03AM -20.0410 -51.4630 328° Northwest 469 540 32,000  Level FlightAware
12:04AM -19.9790 -51.5040 328° Northwest 469 540 32,000  Level FlightAware
12:05AM -19.9010 -51.5560 328° Northwest 469 540 32,000  Level FlightAware
12:05AM -19.8380 -51.5980 328° Northwest 469 540 32,000  Level FlightAware
12:06AM -19.7760 -51.6400 327° Northwest 469 540 32,000  Level FlightAware
12:07AM -19.7130 -51.6810 329° Northwest 469 540 32,000  Level FlightAware
12:07AM -19.6500 -51.7230 328° Northwest 469 540 32,000  Level FlightAware
12:08AM -19.5720 -51.7750 328° Northwest 469 540 32,000  Level FlightAware
12:09AM -19.5100 -51.8160 328° Northwest 469 540 32,000  Level FlightAware
12:09AM -19.4470 -51.8570 328° Northwest 469 540 32,000  Level FlightAware
12:10AM -19.3840 -51.8990 328° Northwest 469 540 32,000  Level FlightAware
12:13AM -19.1132 -52.0812 328° Northwest  Level Estimated
12:14AM -19.0033 -52.1548 328° Northwest  Level Estimated
12:15AM -18.8935 -52.2284 328° Northwest  Level Estimated
12:16AM -18.7836 -52.3019 328° Northwest  Level Estimated
12:17AM -18.6736 -52.3753 328° Northwest  Level Estimated
12:18AM -18.5637 -52.4486 328° Northwest  Level Estimated
12:19AM -18.4537 -52.5218 328° Northwest  Level Estimated
12:20AM -18.3437 -52.5949 328° Northwest  Level Estimated
12:21AM -18.2337 -52.6679 328° Northwest  Level Estimated
12:22AM -18.1236 -52.7408 328° Northwest  Level Estimated
12:23AM -18.0135 -52.8136 328° Northwest  Level Estimated
12:24AM -17.9034 -52.8864 328° Northwest  Level Estimated
12:25AM -17.7932 -52.9590 328° Northwest  Level Estimated
12:26AM -17.6830 -53.0316 328° Northwest  Level Estimated
12:27AM -17.5728 -53.1041 328° Northwest  Level Estimated
12:28AM -17.4626 -53.1764 328° Northwest  Level Estimated
12:29AM -17.3523 -53.2487 328° Northwest  Level Estimated
12:30AM -17.2421 -53.3209 328° Northwest  Level Estimated
12:31AM -17.1318 -53.3931 328° Northwest  Level Estimated
12:32AM -17.0214 -53.4651 328° Northwest  Level Estimated
12:33AM -16.9111 -53.5370 328° Northwest  Level Estimated
12:34AM -16.8007 -53.6089 328° Northwest  Level Estimated
12:35AM -16.6903 -53.6807 328° Northwest  Level Estimated
12:36AM -16.5798 -53.7524 328° Northwest  Level Estimated
12:37AM -16.4694 -53.8240 328° Northwest  Level Estimated
12:38AM -16.3589 -53.8955 328° Northwest  Level Estimated
12:39AM -16.2484 -53.9670 328° Northwest  Level Estimated
12:40AM -16.1379 -54.0383 328° Northwest  Level Estimated
12:41AM -16.0273 -54.1096 328° Northwest  Level Estimated
12:42AM -15.9167 -54.1809 328° Northwest  Level Estimated
12:43AM -15.8061 -54.2520 328° Northwest  Level Estimated
12:44AM -15.6955 -54.3231 328° Northwest  Level Estimated
12:45AM -15.5849 -54.3940 328° Northwest  Level Estimated
12:46AM -15.4742 -54.4649 328° Northwest  Level Estimated
12:47AM -15.3635 -54.5358 328° Northwest  Level Estimated
12:48AM -15.2528 -54.6065 328° Northwest  Level Estimated
12:49AM -15.1420 -54.6772 328° Northwest  Level Estimated
12:50AM -15.0313 -54.7478 328° Northwest  Level Estimated
12:51AM -14.9205 -54.8183 328° Northwest  Level Estimated
12:52AM -14.8097 -54.8888 328° Northwest  Level Estimated
12:53AM -14.6989 -54.9592 328° Northwest  Level Estimated
12:54AM -14.5880 -55.0295 328° Northwest  Level Estimated
12:55AM -14.4772 -55.0997 328° Northwest  Level Estimated
12:56AM -14.3663 -55.1699 328° Northwest  Level Estimated
12:57AM -14.2554 -55.2400 329° Northwest  Level Estimated
12:58AM -14.1445 -55.3101 329° Northwest  Level Estimated
12:59AM -14.0335 -55.3800 329° Northwest  Level Estimated
01:00AM -13.9225 -55.4499 329° Northwest  Level Estimated
01:01AM -13.8116 -55.5198 329° Northwest  Level Estimated
01:02AM -13.7005 -55.5895 329° Northwest  Level Estimated
01:03AM -13.5895 -55.6592 329° Northwest  Level Estimated
01:04AM -13.4785 -55.7289 329° Northwest  Level Estimated
01:05AM -13.3674 -55.7984 329° Northwest  Level Estimated
01:06AM -13.2563 -55.8680 329° Northwest  Level Estimated
01:07AM -13.1452 -55.9374 329° Northwest  Level Estimated
01:08AM -13.0341 -56.0068 329° Northwest  Level Estimated
01:09AM -12.9230 -56.0761 329° Northwest  Level Estimated
01:10AM -12.8118 -56.1454 329° Northwest  Level Estimated
01:11AM -12.7006 -56.2146 329° Northwest  Level Estimated
01:12AM -12.5894 -56.2837 329° Northwest  Level Estimated
01:13AM -12.4782 -56.3528 329° Northwest  Level Estimated
01:14AM -12.3670 -56.4218 329° Northwest  Level Estimated
01:15AM -12.2557 -56.4907 329° Northwest  Level Estimated
01:16AM -12.1445 -56.5596 329° Northwest  Level Estimated
01:17AM -12.0332 -56.6285 329° Northwest  Level Estimated
01:18AM -11.9219 -56.6973 329° Northwest  Level Estimated
01:19AM -11.8106 -56.7660 329° Northwest  Level Estimated
01:20AM -11.6993 -56.8347 329° Northwest  Level Estimated
01:21AM -11.5879 -56.9033 329° Northwest  Level Estimated
01:22AM -11.4766 -56.9718 329° Northwest  Level Estimated
01:23AM -11.3652 -57.0404 329° Northwest  Level Estimated
01:24AM -11.2538 -57.1088 329° Northwest  Level Estimated
01:25AM -11.1424 -57.1772 329° Northwest  Level Estimated
01:26AM -11.0333 -57.2441 329° Northwest  Level Estimated
01:27AM -10.9242 -57.3110 329° Northwest  Level Estimated
01:28AM -10.8152 -57.3778 329° Northwest  Level Estimated
01:29AM -10.7061 -57.4445 329° Northwest  Level Estimated
01:30AM -10.5969 -57.5112 329° Northwest  Level Estimated
01:31AM -10.4878 -57.5779 329° Northwest  Level Estimated
01:32AM -10.3787 -57.6445 329° Northwest  Level Estimated
01:33AM -10.2695 -57.7110 329° Northwest  Level Estimated
01:34AM -10.1604 -57.7775 329° Northwest  Level Estimated
01:35AM -10.0512 -57.8440 329° Northwest  Level Estimated
01:36AM -9.9420 -57.9104 329° Northwest  Level Estimated
01:37AM -9.8328 -57.9768 329° Northwest  Level Estimated
01:38AM -9.7236 -58.0431 329° Northwest  Level Estimated
01:39AM -9.6143 -58.1094 329° Northwest  Level Estimated
01:40AM -9.5051 -58.1757 329° Northwest  Level Estimated
01:41AM -9.3958 -58.2419 329° Northwest  Level Estimated
01:42AM -9.2865 -58.3080 329° Northwest  Level Estimated
01:43AM -9.1773 -58.3742 329° Northwest  Level Estimated
01:44AM -9.0680 -58.4402 329° Northwest  Level Estimated
01:45AM -8.9587 -58.5063 329° Northwest  Level Estimated
01:46AM -8.8493 -58.5723 329° Northwest  Level Estimated
01:47AM -8.7400 -58.6382 329° Northwest  Level Estimated
01:48AM -8.6307 -58.7042 329° Northwest  Level Estimated
01:49AM -8.5213 -58.7701 329° Northwest  Level Estimated
01:50AM -8.4120 -58.8359 329° Northwest  Level Estimated
01:51AM -8.3026 -58.9017 329° Northwest  Level Estimated
01:52AM -8.1932 -58.9675 329° Northwest  Level Estimated
01:53AM -8.0838 -59.0332 329° Northwest  Level Estimated
01:54AM -7.9744 -59.0989 329° Northwest  Level Estimated
01:55AM -7.8650 -59.1646 329° Northwest  Level Estimated
01:56AM -7.7555 -59.2302 329° Northwest  Level Estimated
01:57AM -7.6461 -59.2958 329° Northwest  Level Estimated
01:58AM -7.5367 -59.3614 329° Northwest  Level Estimated
01:59AM -7.4272 -59.4269 329° Northwest  Level Estimated
02:00AM -7.3177 -59.4924 329° Northwest  Level Estimated
02:01AM -7.2083 -59.5579 329° Northwest  Level Estimated
02:02AM -7.0988 -59.6233 329° Northwest  Level Estimated
02:03AM -6.9893 -59.6888 329° Northwest  Level Estimated
02:04AM -6.8798 -59.7541 329° Northwest  Level Estimated
02:05AM -6.7703 -59.8195 329° Northwest  Level Estimated
02:06AM -6.6607 -59.8848 329° Northwest  Level Estimated
02:07AM -6.5512 -59.9501 329° Northwest  Level Estimated
02:08AM -6.4417 -60.0153 329° Northwest  Level Estimated
02:09AM -6.3321 -60.0806 329° Northwest  Level Estimated
02:10AM -6.2226 -60.1457 329° Northwest  Level Estimated
02:11AM -6.1130 -60.2109 329° Northwest  Level Estimated
02:12AM -6.0034 -60.2761 329° Northwest  Level Estimated
02:13AM -5.8939 -60.3412 329° Northwest  Level Estimated
02:14AM -5.7843 -60.4063 329° Northwest  Level Estimated
02:15AM -5.6747 -60.4714 329° Northwest  Level Estimated
02:16AM -5.5651 -60.5364 329° Northwest  Level Estimated
02:17AM -5.4555 -60.6014 329° Northwest  Level Estimated
02:18AM -5.3459 -60.6664 329° Northwest  Level Estimated
02:19AM -5.2362 -60.7314 329° Northwest  Level Estimated
02:20AM -5.1266 -60.7963 329° Northwest  Level Estimated
02:21AM -5.0170 -60.8613 329° Northwest  Level Estimated
02:22AM -4.9073 -60.9262 329° Northwest  Level Estimated
02:23AM -4.7977 -60.9911 329° Northwest  Level Estimated
02:24AM -4.6880 -61.0559 329° Northwest  Level Estimated
02:25AM -4.5784 -61.1208 329° Northwest  Level Estimated
02:26AM -4.4687 -61.1856 329° Northwest  Level Estimated
02:27AM -4.3590 -61.2504 329° Northwest  Level Estimated
02:28AM -4.2494 -61.3152 329° Northwest  Level Estimated
02:29AM -4.1397 -61.3800 330° Northwest  Level Estimated
02:30AM -4.0300 -61.4447 330° Northwest  Level Estimated
02:31AM -3.9203 -61.5094 330° Northwest  Level Estimated
02:32AM -3.8106 -61.5742 330° Northwest  Level Estimated
02:33AM -3.7009 -61.6389 330° Northwest  Level Estimated
02:34AM -3.5912 -61.7035 330° Northwest  Level Estimated
02:35AM -3.4815 -61.7682 330° Northwest  Level Estimated
02:36AM -3.3718 -61.8329 330° Northwest  Level Estimated
02:37AM -3.2620 -61.8975 330° Northwest  Level Estimated
02:38AM -3.1523 -61.9621 330° Northwest  Level Estimated
02:39AM -3.0426 -62.0267 330° Northwest  Level Estimated
02:40AM -2.9329 -62.0913 330° Northwest  Level Estimated
02:41AM -2.8231 -62.1559 330° Northwest  Level Estimated
02:42AM -2.7134 -62.2205 330° Northwest  Level Estimated
02:43AM -2.6036 -62.2850 330° Northwest  Level Estimated
02:44AM -2.4939 -62.3496 330° Northwest  Level Estimated
02:45AM -2.3841 -62.4141 330° Northwest  Level Estimated
02:46AM -2.2744 -62.4787 330° Northwest  Level Estimated
02:47AM -2.1646 -62.5432 330° Northwest  Level Estimated
02:48AM -2.0549 -62.6077 330° Northwest  Level Estimated
02:49AM -1.9451 -62.6722 330° Northwest  Level Estimated
02:50AM -1.8354 -62.7367 330° Northwest  Level Estimated
02:51AM -1.7256 -62.8012 330° Northwest  Level Estimated
02:52AM -1.6158 -62.8657 330° Northwest  Level Estimated
02:53AM -1.5060 -62.9301 330° Northwest  Level Estimated
02:54AM -1.3963 -62.9946 330° Northwest  Level Estimated
02:55AM -1.2865 -63.0590 330° Northwest  Level Estimated
02:56AM -1.1767 -63.1235 330° Northwest  Level Estimated
02:57AM -1.0669 -63.1879 330° Northwest  Level Estimated
02:58AM -0.9572 -63.2524 330° Northwest  Level Estimated
02:59AM -0.8474 -63.3168 330° Northwest  Level Estimated
03:00AM -0.7376 -63.3812 330° Northwest  Level Estimated
03:01AM -0.6278 -63.4457 330° Northwest  Level Estimated
03:02AM -0.5181 -63.5101 330° Northwest  Level Estimated
03:03AM -0.4083 -63.5745 330° Northwest  Level Estimated
03:04AM -0.2985 -63.6390 330° Northwest  Level Estimated
03:05AM -0.1887 -63.7034 330° Northwest  Level Estimated
03:06AM -0.0789 -63.7678 330° Northwest  Level Estimated
03:07AM 0.0309 -63.8322 330° Northwest  Level Estimated
03:08AM 0.1406 -63.8966 330° Northwest  Level Estimated
03:09AM 0.2504 -63.9611 330° Northwest  Level Estimated
03:10AM 0.3602 -64.0255 330° Northwest  Level Estimated
03:11AM 0.4700 -64.0899 330° Northwest  Level Estimated
03:12AM 0.5798 -64.1543 330° Northwest  Level Estimated
03:13AM 0.6895 -64.2188 330° Northwest  Level Estimated
03:14AM 0.7993 -64.2832 330° Northwest  Level Estimated
03:15AM 0.9091 -64.3476 330° Northwest  Level Estimated
03:16AM 1.0189 -64.4121 330° Northwest  Level Estimated
03:17AM 1.1286 -64.4765 330° Northwest  Level Estimated
03:18AM 1.2384 -64.5410 330° Northwest  Level Estimated
03:19AM 1.3482 -64.6054 330° Northwest  Level Estimated
03:20AM 1.4580 -64.6699 330° Northwest  Level Estimated
03:21AM 1.5677 -64.7343 330° Northwest  Level Estimated
03:22AM 1.6775 -64.7988 330° Northwest  Level Estimated
03:23AM 1.7873 -64.8633 330° Northwest  Level Estimated
03:24AM 1.8970 -64.9278 330° Northwest  Level Estimated
03:25AM 2.0068 -64.9923 330° Northwest  Level Estimated
03:26AM 2.1166 -65.0568 330° Northwest  Level Estimated
03:27AM 2.2263 -65.1213 330° Northwest  Level Estimated
03:28AM 2.3361 -65.1858 330° Northwest  Level Estimated
03:29AM 2.4458 -65.2503 330° Northwest  Level Estimated
03:30AM 2.5556 -65.3149 330° Northwest  Level Estimated
03:31AM 2.6653 -65.3794 330° Northwest  Level Estimated
03:32AM 2.7750 -65.4440 330° Northwest  Level Estimated
03:33AM 2.8848 -65.5086 330° Northwest  Level Estimated
03:34AM 2.9945 -65.5732 330° Northwest  Level Estimated
03:35AM 3.1042 -65.6378 330° Northwest  Level Estimated
03:36AM 3.2140 -65.7024 330° Northwest  Level Estimated
03:37AM 3.3237 -65.7670 330° Northwest  Level Estimated
03:38AM 3.4334 -65.8317 330° Northwest  Level Estimated
03:39AM 3.5431 -65.8963 330° Northwest  Level Estimated
03:40AM 3.6528 -65.9610 330° Northwest  Level Estimated
03:41AM 3.7625 -66.0257 330° Northwest  Level Estimated
03:42AM 3.8722 -66.0904 330° Northwest  Level Estimated
03:43AM 3.9819 -66.1552 330° Northwest  Level Estimated
03:44AM 4.0916 -66.2199 330° Northwest  Level Estimated
03:45AM 4.2013 -66.2847 330° Northwest  Level Estimated
03:46AM 4.3110 -66.3494 330° Northwest  Level Estimated
03:47AM 4.4207 -66.4142 329° Northwest  Level Estimated
03:48AM 4.5303 -66.4790 329° Northwest  Level Estimated
03:49AM 4.6400 -66.5439 329° Northwest  Level Estimated
03:50AM 4.7496 -66.6087 329° Northwest  Level Estimated
03:51AM 4.8593 -66.6736 329° Northwest  Level Estimated
03:52AM 4.9689 -66.7385 329° Northwest  Level Estimated
03:53AM 5.0786 -66.8035 329° Northwest  Level Estimated
03:54AM 5.1882 -66.8684 329° Northwest  Level Estimated
03:55AM 5.2978 -66.9333 329° Northwest  Level Estimated
03:56AM 5.4074 -66.9983 329° Northwest  Level Estimated
03:57AM 5.5170 -67.0633 329° Northwest  Level Estimated
03:58AM 5.6266 -67.1284 329° Northwest  Level Estimated
03:59AM 5.7362 -67.1934 329° Northwest  Level Estimated
04:00AM 5.8458 -67.2585 329° Northwest  Level Estimated
04:01AM 5.9554 -67.3236 329° Northwest  Level Estimated
04:02AM 6.0650 -67.3888 329° Northwest  Level Estimated
04:03AM 6.1746 -67.4539 329° Northwest  Level Estimated
04:04AM 6.2841 -67.5191 329° Northwest  Level Estimated
04:05AM 6.3937 -67.5843 329° Northwest  Level Estimated
04:06AM 6.5032 -67.6496 329° Northwest  Level Estimated
04:07AM 6.6127 -67.7149 329° Northwest  Level Estimated
04:08AM 6.7223 -67.7802 329° Northwest  Level Estimated
04:09AM 6.8318 -67.8455 329° Northwest  Level Estimated
04:10AM 6.9413 -67.9108 329° Northwest  Level Estimated
04:11AM 7.0508 -67.9762 329° Northwest  Level Estimated
04:12AM 7.1603 -68.0416 329° Northwest  Level Estimated
04:13AM 7.2698 -68.1071 329° Northwest  Level Estimated
04:14AM 7.3792 -68.1726 329° Northwest  Level Estimated
04:15AM 7.4887 -68.2381 329° Northwest  Level Estimated
04:16AM 7.5981 -68.3037 329° Northwest  Level Estimated
04:17AM 7.7076 -68.3692 329° Northwest  Level Estimated
04:18AM 7.8170 -68.4349 329° Northwest  Level Estimated
04:19AM 7.9264 -68.5005 329° Northwest  Level Estimated
04:20AM 8.0358 -68.5662 329° Northwest  Level Estimated
04:21AM 8.1452 -68.6319 329° Northwest  Level Estimated
04:22AM 8.2546 -68.6977 329° Northwest  Level Estimated
04:23AM 8.3640 -68.7635 329° Northwest  Level Estimated
04:24AM 8.4734 -68.8293 329° Northwest  Level Estimated
04:25AM 8.5827 -68.8952 329° Northwest  Level Estimated
04:26AM 8.6921 -68.9611 329° Northwest  Level Estimated
04:27AM 8.8014 -69.0270 329° Northwest  Level Estimated
04:28AM 8.9108 -69.0930 329° Northwest  Level Estimated
04:29AM 9.0201 -69.1590 329° Northwest  Level Estimated
04:30AM 9.1294 -69.2251 329° Northwest  Level Estimated
04:31AM 9.2387 -69.2912 329° Northwest  Level Estimated
04:32AM 9.3479 -69.3574 329° Northwest  Level Estimated
04:33AM 9.4572 -69.4236 329° Northwest  Level Estimated
04:34AM 9.5664 -69.4898 329° Northwest  Level Estimated
04:35AM 9.6757 -69.5561 329° Northwest  Level Estimated
04:36AM 9.7849 -69.6224 329° Northwest  Level Estimated
04:37AM 9.8941 -69.6887 329° Northwest  Level Estimated
04:38AM 10.0033 -69.7551 329° Northwest  Level Estimated
04:39AM 10.1125 -69.8216 329° Northwest  Level Estimated
04:40AM 10.2217 -69.8881 329° Northwest  Level Estimated
04:41AM 10.3308 -69.9546 329° Northwest  Level Estimated
04:42AM 10.4400 -70.0212 329° Northwest  Level Estimated
04:43AM 10.5491 -70.0878 329° Northwest  Level Estimated
04:44AM 10.6582 -70.1545 329° Northwest  Level Estimated
04:45AM 10.7673 -70.2213 329° Northwest  Level Estimated
04:46AM 10.8764 -70.2880 329° Northwest  Level Estimated
04:47AM 10.9855 -70.3549 329° Northwest  Level Estimated
04:48AM 11.0946 -70.4217 329° Northwest  Level Estimated
04:49AM 11.2036 -70.4886 329° Northwest  Level Estimated
04:50AM 11.3126 -70.5556 329° Northwest  Level Estimated
04:51AM 11.4217 -70.6226 329° Northwest  Level Estimated
04:52AM 11.5307 -70.6897 329° Northwest  Level Estimated
04:53AM 11.6397 -70.7569 329° Northwest  Level Estimated
04:54AM 11.7486 -70.8240 329° Northwest  Level Estimated
04:55AM 11.8576 -70.8913 329° Northwest  Level Estimated
04:56AM 11.9665 -70.9585 329° Northwest  Level Estimated
04:57AM 12.0754 -71.0259 329° Northwest  Level Estimated
04:58AM 12.1844 -71.0933 329° Northwest  Level Estimated
04:59AM 12.2932 -71.1607 329° Northwest  Level Estimated
05:00AM 12.4021 -71.2282 329° Northwest  Level Estimated
05:01AM 12.5110 -71.2958 329° Northwest  Level Estimated
05:02AM 12.6198 -71.3634 329° Northwest  Level Estimated
05:03AM 12.7286 -71.4311 329° Northwest  Level Estimated
05:04AM 12.8374 -71.4988 329° Northwest  Level Estimated
05:05AM 12.9462 -71.5667 329° Northwest  Level Estimated
05:06AM 13.0550 -71.6345 329° Northwest  Level Estimated
05:07AM 13.1637 -71.7024 329° Northwest  Level Estimated
05:08AM 13.2725 -71.7704 329° Northwest  Level Estimated
05:09AM 13.3812 -71.8384 329° Northwest  Level Estimated
05:10AM 13.4899 -71.9065 329° Northwest  Level Estimated
05:11AM 13.5986 -71.9747 329° Northwest  Level Estimated
05:12AM 13.7072 -72.0429 329° Northwest  Level Estimated
05:13AM 13.8159 -72.1112 329° Northwest  Level Estimated
05:14AM 13.9245 -72.1796 329° Northwest  Level Estimated
05:15AM 14.0331 -72.2480 329° Northwest  Level Estimated
05:16AM 14.1417 -72.3165 329° Northwest  Level Estimated
05:17AM 14.2503 -72.3850 329° Northwest  Level Estimated
05:18AM 14.3588 -72.4536 329° Northwest  Level Estimated
05:19AM 14.4674 -72.5223 329° Northwest  Level Estimated
05:20AM 14.5759 -72.5910 328° Northwest  Level Estimated
05:21AM 14.6844 -72.6598 328° Northwest  Level Estimated
05:22AM 14.7928 -72.7287 328° Northwest  Level Estimated
05:23AM 14.9013 -72.7977 328° Northwest  Level Estimated
05:24AM 15.0097 -72.8667 328° Northwest  Level Estimated
05:25AM 15.1181 -72.9358 328° Northwest  Level Estimated
05:26AM 15.2265 -73.0049 328° Northwest  Level Estimated
05:27AM 15.3349 -73.0742 328° Northwest  Level Estimated
05:28AM 15.4432 -73.1435 328° Northwest  Level Estimated
05:29AM 15.5515 -73.2128 328° Northwest  Level Estimated
05:30AM 15.6598 -73.2823 328° Northwest  Level Estimated
05:31AM 15.7681 -73.3518 328° Northwest  Level Estimated
05:32AM 15.8764 -73.4214 328° Northwest  Level Estimated
05:33AM 15.9846 -73.4911 328° Northwest  Level Estimated
05:34AM 16.0928 -73.5608 328° Northwest  Level Estimated
05:35AM 16.2010 -73.6306 328° Northwest  Level Estimated
05:36AM 16.3092 -73.7005 328° Northwest  Level Estimated
05:37AM 16.4173 -73.7705 328° Northwest  Level Estimated
05:38AM 16.5254 -73.8406 328° Northwest  Level Estimated
05:39AM 16.6335 -73.9107 328° Northwest  Level Estimated
05:40AM 16.7416 -73.9809 328° Northwest  Level Estimated
05:41AM 16.8496 -74.0512 328° Northwest  Level Estimated
05:42AM 16.9576 -74.1216 328° Northwest  Level Estimated
05:43AM 17.0657 -74.1920 328° Northwest  Level Estimated
05:44AM 17.1736 -74.2626 328° Northwest  Level Estimated
05:45AM 17.2816 -74.3332 328° Northwest  Level Estimated
05:46AM 17.3895 -74.4039 328° Northwest  Level Estimated
05:47AM 17.4974 -74.4746 328° Northwest  Level Estimated
05:48AM 17.6053 -74.5455 328° Northwest  Level Estimated
05:49AM 17.7131 -74.6165 328° Northwest  Level Estimated
05:50AM 17.8210 -74.6875 328° Northwest  Level Estimated
05:51AM 17.9288 -74.7586 328° Northwest  Level Estimated
05:52AM 18.0365 -74.8298 328° Northwest  Level Estimated
05:53AM 18.1443 -74.9011 328° Northwest  Level Estimated
05:54AM 18.2520 -74.9725 328° Northwest  Level Estimated
05:55AM 18.3597 -75.0440 328° Northwest  Level Estimated
05:56AM 18.4674 -75.1155 328° Northwest  Level Estimated
05:57AM 18.5750 -75.1872 328° Northwest  Level Estimated
05:58AM 18.6826 -75.2589 328° Northwest  Level Estimated
05:59AM 18.7902 -75.3308 328° Northwest  Level Estimated
06:00AM 18.8978 -75.4027 328° Northwest  Level Estimated
06:01AM 19.0053 -75.4747 328° Northwest  Level Estimated
06:02AM 19.1128 -75.5468 328° Northwest  Level Estimated
06:03AM 19.2203 -75.6190 328° Northwest  Level Estimated
06:04AM 19.3277 -75.6913 328° Northwest  Level Estimated
06:05AM 19.4352 -75.7637 328° Northwest  Level Estimated
06:06AM 19.5425 -75.8362 328° Northwest  Level Estimated
06:07AM 19.6499 -75.9088 328° Northwest  Level Estimated
06:08AM 19.7572 -75.9815 327° Northwest  Level Estimated
06:09AM 19.8645 -76.0543 327° Northwest  Level Estimated
06:10AM 19.9718 -76.1271 327° Northwest  Level Estimated
06:11AM 20.0790 -76.2001 327° Northwest  Level Estimated
06:12AM 20.1863 -76.2732 327° Northwest  Level Estimated
06:13AM 20.2934 -76.3464 327° Northwest  Level Estimated
06:14AM 20.4006 -76.4196 327° Northwest  Level Estimated
06:15AM 20.5077 -76.4930 327° Northwest  Level Estimated
06:16AM 20.6148 -76.5665 327° Northwest  Level Estimated
06:17AM 20.7218 -76.6401 327° Northwest  Level Estimated
06:18AM 20.8289 -76.7138 327° Northwest  Level Estimated
06:19AM 20.9359 -76.7876 327° Northwest  Level Estimated
06:20AM 21.0429 -76.8615 327° Northwest  Level Estimated
06:21AM 21.1498 -76.9355 327° Northwest  Level Estimated
06:22AM 21.2567 -77.0096 327° Northwest  Level Estimated
06:23AM 21.3636 -77.0838 327° Northwest  Level Estimated
06:24AM 21.4704 -77.1582 327° Northwest  Level Estimated
06:25AM 21.5772 -77.2326 327° Northwest  Level Estimated
06:26AM 21.6840 -77.3072 327° Northwest  Level Estimated
06:27AM 21.7907 -77.3818 327° Northwest  Level Estimated
06:28AM 21.8985 -77.4574 327° Northwest  Level Estimated
06:28AM 22.7939 -77.8506 327° Northwest 487 560 36,000  Level Miami Center
06:29AM 22.0063 -77.5330 327° Northwest  Level Estimated
06:29AM 22.9086 -77.8761 348° North 430 495 36,000  Level Miami Center
06:30AM 22.1140 -77.6088 327° Northwest  Level Estimated
06:30AM 23.0256 -77.9086 346° North 436 502 36,000  Level Miami Center
06:31AM 22.2217 -77.6847 327° Northwest  Level Estimated
06:31AM 23.1336 -77.9658 334° Northwest 436 502 36,000  Level Miami Center
06:32AM 22.3294 -77.7607 327° Northwest  Level Estimated
06:32AM 23.2272 -78.0436 323° Northwest 425 489 36,000  Level Miami Center
06:33AM 22.4370 -77.8368 327° Northwest  Level Estimated
06:33AM 23.3206 -78.1122 326° Northwest 413 475 36,000  Level Miami Center
06:34AM 23.4161 -78.1969 321° Northwest 426 490 36,000  Level Miami Center
06:35AM 23.5072 -78.2683 324° Northwest 420 483 36,000  Level Miami Center
06:36AM 23.5986 -78.3372 325° Northwest 416 479 36,000  Level Miami Center
06:37AM 23.6897 -78.4086 324° Northwest 411 473 36,000  Level Miami Center
06:38AM 23.7850 -78.4869 323° Northwest 411 473 36,000  Level Miami Center
06:39AM 23.8764 -78.5564 325° Northwest 406 467 36,000  Level Miami Center
06:40AM 23.9675 -78.6281 324° Northwest 401 461 36,000 -660 Level Miami Center
06:45AM 24.4890 -79.0250 324° Northwest 380 437 31,800 -900 Descending FlightAware
06:46AM 24.5550 -79.0760 325° Northwest 373 429 30,400 -1,560 Descending FlightAware
06:47AM 24.6130 -79.1210 325° Northwest 375 432 29,600 -1,620 Descending FlightAware
06:47AM 24.6720 -79.1660 325° Northwest 377 434 28,300 -2,340 Descending FlightAware
06:48AM 24.7380 -79.2170 325° Northwest 392 451 26,300 -2,520 Descending FlightAware
06:49AM 24.7980 -79.2640 325° Northwest 395 455 24,800 -1,980 Descending FlightAware
06:50AM 24.8660 -79.3170 325° Northwest 380 437 23,500 -1,860 Descending FlightAware
06:50AM 24.9230 -79.3610 325° Northwest 376 433 22,200 -1,980 Descending FlightAware
06:51AM 24.9810 -79.4070 324° Northwest 377 434 20,900 -1,980 Descending FlightAware
06:52AM 25.0440 -79.4560 325° Northwest 372 428 19,400 -1,920 Descending FlightAware
06:52AM 25.1000 -79.5000 325° Northwest 364 419 18,200 -1,800 Descending FlightAware
06:53AM 25.1630 -79.5490 325° Northwest 357 411 16,900 -1,800 Descending FlightAware
06:54AM 25.2170 -79.5920 324° Northwest 358 412 15,700 -1,800 Descending FlightAware
06:55AM 25.2790 -79.6400 325° Northwest 352 405 14,400 -1,740 Descending FlightAware
06:55AM 25.3310 -79.6810 325° Northwest 341 392 13,300 -1,680 Descending FlightAware
06:56AM 25.3800 -79.7200 324° Northwest 342 394 12,200 -1,320 Descending FlightAware
06:57AM 25.4270 -79.7800 311° West 316 364 11,500 -780 Descending FlightAware
06:57AM 25.4610 -79.8330 305° West 319 367 11,100 -720 Descending FlightAware
06:58AM 25.4960 -79.8860 306° West 308 354 10,600 -720 Descending FlightAware
06:59AM 25.5320 -79.9410 306° West 280 322 10,100 -600 Descending FlightAware
06:59AM 25.5520 -79.9700 307° West 275 316 9,900 -600 Descending FlightAware
07:00AM 25.5740 -80.0040 306° West 273 314 9,600 -900 Descending FlightAware
07:00AM 25.5960 -80.0380 306° West 264 304 9,000 -1,200 Descending FlightAware
07:01AM 25.6150 -80.0660 307° West 259 298 8,500 -1,140 Descending FlightAware
07:01AM 25.6360 -80.0980 306° West 255 293 8,000 -600 Descending FlightAware
07:01AM 25.6530 -80.1240 306° West 247 284 8,000 -120 Level FlightAware
07:02AM 25.6680 -80.1590 295° West 246 283 7,900 -180 Descending FlightAware
07:02AM 25.6730 -80.1770 287° West 249 287 7,900 -600 Level FlightAware
07:03AM 25.6800 -80.2060 285° West 250 288 7,500 -1,560 Descending FlightAware
07:03AM 25.6910 -80.2460 287° West 262 302 6,500 -1,620 Descending FlightAware
07:04AM 25.7010 -80.2850 286° West 261 300 5,900 -1,200 Descending FlightAware
07:04AM 25.7080 -80.3170 284° West 259 298 5,400 -1,560 Descending FlightAware
07:05AM 25.7090 -80.3780 271° West 250 288 4,100 -1,500 Descending FlightAware
07:05AM 25.7160 -80.4060 286° West 227 261 3,700 -1,560 Descending FlightAware
07:06AM 25.7290 -80.4370 295° West 216 249 2,700 -1,800 Descending FlightAware
07:06AM 25.7490 -80.4480 334° Northwest 181 208 2,100 -1,320 Descending FlightAware
07:07AM 25.7680 -80.4320 37° Northeast 177 204 1,500 -720 Descending FlightAware
07:07AM 25.7800 -80.4110 58° Northeast 153 176 1,400  Descending FlightAware
07:07AM 25.7820 -80.4030 74° East 157 181 1,500  Climbing FlightAware
07:07AM 25.7830 -80.3970 80° East 161 185 1,400 -840 Descending FlightAware
07:08AM 25.7840 -80.3650 88° East 153 176 900 -900 Descending FlightAware
07:08AM 25.7850 -80.3490 86° East 152 175 600 -780 Descending FlightAware
07:09AM 25.7850 -80.3330 90° East 159 183 400 -300 Descending FlightAware
07:09AM 25.7850 -80.3150 90° East 159 183 400  Level FlightAware